createdAt,value
2018-01-15T00:01:32.654Z,98950.52
2018-01-15T00:04:00.764Z,98947.22
2018-01-15T00:06:28.225Z,98951.38
2018-01-15T00:08:55.689Z,98955.96
2018-01-15T00:11:23.480Z,98956.03
2018-01-15T00:13:50.905Z,98964.31
2018-01-15T00:16:18.368Z,98958.76
2018-01-15T00:18:46.429Z,98953.27
2018-01-15T00:21:13.897Z,98954.56
2018-01-15T00:23:41.354Z,98948.19
2018-01-15T00:26:09.114Z,98952.98
2018-01-15T00:28:36.572Z,98957.28
2018-01-15T00:31:04.031Z,98950.90
2018-01-15T00:33:31.753Z,98954.83
2018-01-15T00:35:59.558Z,98955.33
2018-01-15T00:38:27.012Z,98951.09
2018-01-15T00:40:54.786Z,98954.09
2018-01-15T00:43:22.243Z,98957.53
2018-01-15T00:45:49.755Z,98953.58
2018-01-15T00:48:17.780Z,98954.06
2018-01-15T00:50:45.238Z,98958.30
2018-01-15T00:53:12.694Z,98962.14
2018-01-15T00:55:40.298Z,98960.48
2018-01-15T00:58:07.760Z,98963.55
2018-01-15T01:00:35.238Z,98963.52
2018-01-15T01:03:03.156Z,98965.48
2018-01-15T01:05:30.612Z,98971.98
2018-01-15T01:07:58.069Z,98968.06
2018-01-15T01:10:25.858Z,98971.86
2018-01-15T01:12:53.614Z,98965.52
2018-01-15T01:15:21.077Z,98967.36
2018-01-15T01:17:48.537Z,98966.47
2018-01-15T01:20:16.299Z,98962.93
2018-01-15T01:22:43.760Z,98968.45
2018-01-15T01:25:11.220Z,98958.93
2018-01-15T01:27:39.298Z,98958.50
2018-01-15T01:30:06.757Z,98964.48
2018-01-15T01:32:34.220Z,98955.78
2018-01-15T01:35:02.289Z,98950.59
2018-01-15T01:37:30.436Z,98956.03
2018-01-15T01:39:57.885Z,98950.19
2018-01-15T01:42:25.902Z,98951.02
2018-01-15T01:44:53.357Z,98951.48
2018-01-15T01:47:20.818Z,98946.69
2018-01-15T01:49:48.888Z,98949.66
2018-01-15T01:52:16.357Z,98945.36
2018-01-15T01:54:43.826Z,98952.20
2018-01-15T01:57:11.571Z,98956.89
2018-01-15T01:59:39.021Z,98950.45
2018-01-15T02:02:06.477Z,98947.86
2018-01-15T02:04:34.252Z,98948.64
2018-01-15T02:07:01.703Z,98949.12
2018-01-15T02:09:29.162Z,98946.92
2018-01-15T02:11:56.942Z,98949.63
2018-01-15T02:14:24.395Z,98945.71
2018-01-15T02:16:51.848Z,98944.42
2018-01-15T02:19:19.940Z,98940.48
2018-01-15T02:21:47.392Z,98946.29
2018-01-15T02:24:14.856Z,98951.95
2018-01-15T02:26:42.636Z,98947.40
2018-01-15T02:29:10.106Z,98953.45
2018-01-15T02:31:37.561Z,98949.00
2018-01-15T02:34:05.926Z,98960.69
2018-01-15T02:36:33.372Z,98954.16
2018-01-15T02:39:01.243Z,98954.59
2018-01-15T02:41:28.933Z,98949.47
2018-01-15T02:43:56.391Z,98953.38
2018-01-15T02:46:23.849Z,98957.67
2018-01-15T02:48:51.926Z,98956.35
2018-01-15T02:51:19.380Z,98954.67
2018-01-15T02:53:46.839Z,98948.83
2018-01-15T02:56:14.611Z,98942.56
2018-01-15T02:58:42.061Z,98945.79
2018-01-15T03:01:09.512Z,98947.08
2018-01-15T03:03:37.293Z,98941.98
2018-01-15T03:06:04.747Z,98946.85
2018-01-15T03:08:32.202Z,98936.25
2018-01-15T03:10:59.981Z,98943.13
2018-01-15T03:13:27.440Z,98938.08
2018-01-15T03:15:54.900Z,98935.14
2018-01-15T03:18:22.593Z,98936.36
2018-01-15T03:20:50.056Z,98948.33
2018-01-15T03:23:17.513Z,98949.19
2018-01-15T03:25:45.356Z,98938.87
2018-01-15T03:28:12.825Z,98940.94
2018-01-15T03:30:40.294Z,98942.56
2018-01-15T03:33:08.049Z,98934.39
2018-01-15T03:35:35.505Z,98936.47
2018-01-15T03:38:02.960Z,98936.72
2018-01-15T03:40:34.643Z,98939.45
2018-01-15T03:43:02.105Z,98946.96
2018-01-15T03:45:29.556Z,98945.50
2018-01-15T03:47:57.656Z,98942.84
2018-01-15T03:50:25.119Z,98935.58
2018-01-15T03:52:52.588Z,98931.12
2018-01-15T03:55:20.247Z,98940.30
2018-01-15T03:57:47.701Z,98937.37
2018-01-15T04:00:15.161Z,98939.02
2018-01-15T04:02:43.089Z,98937.83
2018-01-15T04:05:10.543Z,98938.69
2018-01-15T04:07:37.998Z,98933.67
2018-01-15T04:10:05.776Z,98934.53
2018-01-15T04:12:33.287Z,98935.59
2018-01-15T04:15:00.745Z,98938.44
2018-01-15T04:17:28.768Z,98924.50
2018-01-15T04:19:56.240Z,98933.37
2018-01-15T04:22:23.700Z,98932.98
2018-01-15T04:24:51.309Z,98932.05
2018-01-15T04:27:18.769Z,98923.34
2018-01-15T04:29:46.224Z,98924.24
2018-01-15T04:32:13.847Z,98927.19
2018-01-15T04:34:41.311Z,98928.09
2018-01-15T04:37:08.775Z,98933.86
2018-01-15T04:39:36.530Z,98929.30
2018-01-15T04:42:04.679Z,98921.42
2018-01-15T04:44:32.149Z,98932.14
2018-01-15T04:46:59.899Z,98925.72
2018-01-15T04:49:27.357Z,98929.77
2018-01-15T04:51:54.812Z,98925.77
2018-01-15T04:54:22.521Z,98925.30
2018-01-15T04:56:49.980Z,98934.03
2018-01-15T04:59:17.443Z,98932.56
2018-01-15T05:01:45.517Z,98930.52
2018-01-15T05:04:12.976Z,98928.30
2018-01-15T05:06:40.438Z,98930.38
2018-01-15T05:09:08.191Z,98916.16
2018-01-15T05:11:35.662Z,98922.83
2018-01-15T05:14:03.120Z,98918.59
2018-01-15T05:16:30.900Z,98923.65
2018-01-15T05:18:58.357Z,98931.34
2018-01-15T05:21:25.824Z,98927.48
2018-01-15T05:23:53.874Z,98918.63
2018-01-15T05:26:21.344Z,98917.80
2018-01-15T05:28:48.808Z,98915.16
2018-01-15T05:31:16.573Z,98909.06
2018-01-15T05:33:44.040Z,98905.95
2018-01-15T05:36:11.501Z,98915.44
2018-01-15T05:38:39.259Z,98927.05
2018-01-15T05:41:06.719Z,98919.95
2018-01-15T05:43:34.410Z,98919.92
2018-01-15T05:46:02.136Z,98922.06
2018-01-15T05:48:29.606Z,98923.38
2018-01-15T05:50:57.071Z,98923.53
2018-01-15T05:53:24.929Z,98929.85
2018-01-15T05:55:52.404Z,98922.09
2018-01-15T05:58:19.864Z,98918.59
2018-01-15T06:00:47.633Z,98921.27
2018-01-15T06:03:15.101Z,98922.40
2018-01-15T06:05:42.573Z,98923.41
2018-01-15T06:08:10.617Z,98917.70
2018-01-15T06:10:38.077Z,98918.59
2018-01-15T06:13:05.550Z,98916.35
2018-01-15T06:15:33.610Z,98918.20
2018-01-15T06:18:01.077Z,98918.17
2018-01-15T06:20:28.536Z,98913.90
2018-01-15T06:22:56.424Z,98917.38
2018-01-15T06:25:23.885Z,98919.89
2018-01-15T06:27:51.348Z,98926.91
2018-01-15T06:30:19.284Z,98915.86
2018-01-15T06:32:46.744Z,98906.84
2018-01-15T06:35:15.393Z,98913.30
2018-01-15T06:37:43.216Z,98907.30
2018-01-15T06:40:10.672Z,98908.21
2018-01-15T06:42:38.137Z,98909.55
2018-01-15T06:45:06.558Z,98909.09
2018-01-15T06:47:34.033Z,98911.67
2018-01-15T06:50:01.492Z,98908.74
2018-01-15T06:52:29.189Z,98910.03
2018-01-15T06:54:56.645Z,98906.73
2018-01-15T06:57:24.105Z,98912.36
2018-01-15T06:59:51.882Z,98908.01
2018-01-15T07:02:19.356Z,98913.30
2018-01-15T07:04:46.811Z,98917.77
2018-01-15T07:07:14.889Z,98908.75
2018-01-15T07:09:42.346Z,98914.08
2018-01-15T07:12:09.805Z,98914.27
2018-01-15T07:14:37.561Z,98912.77
2018-01-15T07:17:05.016Z,98917.95
2018-01-15T07:19:32.473Z,98920.86
2018-01-15T07:22:00.253Z,98918.86
2018-01-15T07:24:27.725Z,98920.44
2018-01-15T07:26:55.185Z,98924.81
2018-01-15T07:29:22.931Z,98924.44
2018-01-15T07:31:50.401Z,98929.52
2018-01-15T07:34:17.863Z,98930.02
2018-01-15T07:36:45.618Z,98926.50
2018-01-15T07:39:13.081Z,98924.36
2018-01-15T07:41:40.540Z,98923.06
2018-01-15T07:44:08.317Z,98915.38
2018-01-15T07:46:36.149Z,98922.55
2018-01-15T07:49:03.614Z,98918.99
2018-01-15T07:51:31.921Z,98926.75
2018-01-15T07:53:59.383Z,98928.11
2018-01-15T07:56:26.845Z,98925.28
2018-01-15T07:58:54.655Z,98924.09
2018-01-15T08:01:22.212Z,98919.05
2018-01-15T08:03:49.675Z,98920.81
2018-01-15T08:06:17.350Z,98918.37
2018-01-15T08:08:44.814Z,98920.05
2018-01-15T08:11:12.277Z,98920.67
2018-01-15T08:13:39.873Z,98923.58
2018-01-15T08:16:07.377Z,98920.17
2018-01-15T08:18:34.815Z,98919.27
2018-01-15T08:21:02.673Z,98916.39
2018-01-15T08:23:30.144Z,98914.47
2018-01-15T08:25:57.592Z,98917.36
2018-01-15T08:28:25.257Z,98921.00
2018-01-15T08:30:52.712Z,98917.27
2018-01-15T08:33:20.206Z,98915.94
2018-01-15T08:35:48.040Z,98915.67
2018-01-15T08:38:15.502Z,98917.88
2018-01-15T08:40:42.949Z,98917.59
2018-01-15T08:43:10.672Z,98921.66
2018-01-15T08:45:38.124Z,98918.48
2018-01-15T08:48:06.332Z,98920.28
2018-01-15T08:50:34.278Z,98920.23
2018-01-15T08:53:01.735Z,98913.82
2018-01-15T08:55:29.199Z,98911.23
2018-01-15T08:57:56.964Z,98917.92
2018-01-15T09:00:24.413Z,98910.67
2018-01-15T09:02:51.871Z,98915.03
2018-01-15T09:05:19.705Z,98907.93
2018-01-15T09:07:47.159Z,98906.37
2018-01-15T09:10:14.605Z,98916.11
2018-01-15T09:12:42.388Z,98920.92
2018-01-15T09:15:09.835Z,98910.63
2018-01-15T09:17:37.289Z,98913.88
2018-01-15T09:20:05.077Z,98917.57
2018-01-15T09:22:32.524Z,98922.60
2018-01-15T09:24:59.976Z,98918.13
2018-01-15T09:27:27.763Z,98913.40
2018-01-15T09:29:55.212Z,98916.13
2018-01-15T09:32:22.670Z,98912.49
2018-01-15T09:34:50.444Z,98910.52
2018-01-15T09:37:17.897Z,98908.61
2018-01-15T09:39:45.350Z,98910.19
2018-01-15T09:42:13.137Z,98907.80
2018-01-15T09:44:40.939Z,98902.88
2018-01-15T09:47:08.392Z,98897.98
2018-01-15T09:49:37.677Z,98904.11
2018-01-15T09:52:05.138Z,98893.56
2018-01-15T09:54:32.585Z,98903.78
2018-01-15T09:57:00.657Z,98896.20
2018-01-15T09:59:28.109Z,98889.56
2018-01-15T10:01:55.556Z,98891.02
2018-01-15T10:04:23.357Z,98890.96
2018-01-15T10:06:50.817Z,98880.66
2018-01-15T10:09:18.269Z,98874.98
2018-01-15T10:11:46.660Z,98867.55
2018-01-15T10:14:14.109Z,98871.67
2018-01-15T10:16:41.557Z,98863.92
2018-01-15T10:19:09.336Z,98862.81
2018-01-15T10:21:36.802Z,98849.84
2018-01-15T10:24:04.257Z,98851.05
2018-01-15T10:26:32.044Z,98849.33
2018-01-15T10:28:59.495Z,98853.00
2018-01-15T10:31:26.953Z,98858.16
2018-01-15T10:33:54.697Z,98848.49
2018-01-15T10:36:22.149Z,98844.83
2018-01-15T10:38:49.617Z,98841.00
2018-01-15T10:41:17.394Z,98828.99
2018-01-15T10:43:44.864Z,98817.35
2018-01-15T10:46:12.404Z,98823.64
2018-01-15T10:48:40.394Z,98815.13
2018-01-15T10:51:08.540Z,98816.47
2018-01-15T10:53:35.988Z,98811.66
2018-01-15T10:56:04.017Z,98802.38
2018-01-15T10:58:31.472Z,98805.63
2018-01-15T11:00:58.927Z,98803.12
2018-01-15T11:03:26.698Z,98790.64
2018-01-15T11:05:54.148Z,98789.28
2018-01-15T11:08:21.613Z,98785.94
2018-01-15T11:10:49.720Z,98780.55
2018-01-15T11:13:17.169Z,98772.86
2018-01-15T11:15:44.629Z,98764.11
2018-01-15T11:18:12.369Z,98760.16
2018-01-15T11:20:39.817Z,98757.27
2018-01-15T11:23:07.280Z,98746.81
2018-01-15T11:25:35.097Z,98751.37
2018-01-15T11:28:02.521Z,98741.54
2018-01-15T11:30:29.996Z,98736.72
2018-01-15T11:32:57.755Z,98724.91
2018-01-15T11:35:25.204Z,98719.07
2018-01-15T11:37:52.648Z,98724.23
2018-01-15T11:40:20.430Z,98716.47
2018-01-15T11:42:47.885Z,98706.38
2018-01-15T11:45:15.328Z,98706.76
2018-01-15T11:47:43.123Z,98707.61
2018-01-15T11:50:10.576Z,98696.41
2018-01-15T11:52:38.410Z,98693.52
2018-01-15T11:55:06.428Z,98687.33
2018-01-15T11:57:33.881Z,98687.05
2018-01-15T12:00:01.336Z,98686.82
2018-01-15T12:02:29.109Z,98676.03
2018-01-15T12:04:56.574Z,98684.09
2018-01-15T12:07:24.033Z,98675.02
2018-01-15T12:09:51.797Z,98659.64
2018-01-15T12:12:19.248Z,98665.89
2018-01-15T12:14:46.692Z,98665.67
2018-01-15T12:17:14.482Z,98663.83
2018-01-15T12:19:41.941Z,98657.97
2018-01-15T12:22:09.405Z,98653.27
2018-01-15T12:24:37.781Z,98642.23
2018-01-15T12:27:05.229Z,98637.70
2018-01-15T12:29:32.673Z,98639.20
2018-01-15T12:32:00.462Z,98629.66
2018-01-15T12:34:27.930Z,98625.62
2018-01-15T12:36:56.717Z,98621.03
2018-01-15T12:39:24.692Z,98622.06
2018-01-15T12:41:52.135Z,98617.59
2018-01-15T12:44:19.588Z,98607.17
2018-01-15T12:46:47.369Z,98608.25
2018-01-15T12:49:14.822Z,98597.50
2018-01-15T12:51:42.280Z,98598.34
2018-01-15T12:54:10.673Z,98601.97
2018-01-15T12:56:38.120Z,98587.08
2018-01-15T12:59:05.563Z,98584.91
2018-01-15T13:01:33.368Z,98574.52
2018-01-15T13:04:00.824Z,98561.12
2018-01-15T13:06:40.586Z,98556.81
2018-01-15T13:09:08.040Z,98552.34
2018-01-15T13:11:35.513Z,98552.75
2018-01-15T13:14:03.264Z,98549.12
2018-01-15T13:16:30.728Z,98554.14
2018-01-15T13:18:58.188Z,98538.83
2018-01-15T13:21:25.949Z,98542.67
2018-01-15T13:23:53.406Z,98533.47
2018-01-15T13:26:20.853Z,98541.09
2018-01-15T13:28:48.561Z,98533.61
2018-01-15T13:31:16.024Z,98529.72
2018-01-15T13:33:43.484Z,98520.57
2018-01-15T13:36:11.320Z,98510.67
2018-01-15T13:38:38.772Z,98519.03
2018-01-15T13:41:06.220Z,98513.95
2018-01-15T13:43:34.012Z,98512.77
2018-01-15T13:46:01.481Z,98511.14
2018-01-15T13:48:28.939Z,98506.56
2018-01-15T13:50:56.701Z,98508.58
2018-01-15T13:53:24.148Z,98512.47
2018-01-15T13:55:51.689Z,98499.92
2018-01-15T13:58:19.468Z,98496.70
2018-01-15T14:00:46.921Z,98493.80
2018-01-15T14:03:14.372Z,98484.59
2018-01-15T14:05:42.088Z,98487.71
2018-01-15T14:08:09.542Z,98482.94
2018-01-15T14:10:37.001Z,98481.98
2018-01-15T14:13:04.753Z,98481.75
2018-01-15T14:15:32.209Z,98480.34
2018-01-15T14:17:59.665Z,98477.63
2018-01-15T14:20:27.655Z,98473.58
2018-01-15T14:22:55.105Z,98463.97
2018-01-15T14:25:22.556Z,98470.73
2018-01-15T14:27:50.844Z,98474.12
2018-01-15T14:30:18.293Z,98465.05
2018-01-15T14:32:45.756Z,98463.38
2018-01-15T14:35:13.777Z,98463.97
2018-01-15T14:37:41.249Z,98460.96
2018-01-15T14:40:08.709Z,98455.94
2018-01-15T14:42:36.342Z,98450.36
2018-01-15T14:45:03.804Z,98453.45
2018-01-15T14:47:31.257Z,98454.44
2018-01-15T14:49:59.421Z,98452.84
2018-01-15T14:52:26.881Z,98455.78
2018-01-15T14:54:54.344Z,98458.44
2018-01-15T14:57:22.720Z,98441.41
2018-01-15T14:59:50.168Z,98440.17
2018-01-15T15:02:17.644Z,98430.41
2018-01-15T15:04:45.413Z,98439.34
2018-01-15T15:07:12.873Z,98430.87
2018-01-15T15:09:40.340Z,98424.69
2018-01-15T15:12:08.119Z,98428.73
2018-01-15T15:14:35.585Z,98424.66
2018-01-15T15:17:03.030Z,98418.64
2018-01-15T15:19:30.788Z,98420.05
2018-01-15T15:21:58.236Z,98418.17
2018-01-15T15:24:25.701Z,98416.11
2018-01-15T15:26:53.474Z,98415.10
2018-01-15T15:29:20.932Z,98409.25
2018-01-15T15:31:48.388Z,98407.47
2018-01-15T15:34:16.160Z,98400.50
2018-01-15T15:36:43.607Z,98396.24
2018-01-15T15:39:11.056Z,98391.73
2018-01-15T15:41:38.838Z,98385.00
2018-01-15T15:44:06.292Z,98378.68
2018-01-15T15:46:33.745Z,98370.91
2018-01-15T15:49:01.531Z,98367.27
2018-01-15T15:51:28.985Z,98373.60
2018-01-15T15:53:56.435Z,98370.99
2018-01-15T15:56:24.229Z,98373.79
2018-01-15T15:58:52.066Z,98371.41
2018-01-15T16:01:19.530Z,98370.74
2018-01-15T16:03:47.517Z,98360.74
2018-01-15T16:06:14.978Z,98358.23
2018-01-15T16:08:42.434Z,98346.91
2018-01-15T16:11:10.214Z,98342.80
2018-01-15T16:13:37.661Z,98328.12
2018-01-15T16:16:05.109Z,98322.82
2018-01-15T16:18:32.893Z,98327.33
2018-01-15T16:21:00.343Z,98311.72
2018-01-15T16:23:27.797Z,98311.97
2018-01-15T16:25:55.589Z,98303.93
2018-01-15T16:28:23.056Z,98294.97
2018-01-15T16:30:50.514Z,98294.25
2018-01-15T16:33:18.265Z,98284.11
2018-01-15T16:35:46.332Z,98290.48
2018-01-15T16:38:13.789Z,98283.99
2018-01-15T16:40:41.515Z,98280.05
2018-01-15T16:43:09.909Z,98284.73
2018-01-15T16:45:37.487Z,98282.09
2018-01-15T16:48:05.498Z,98276.38
2018-01-15T16:50:33.476Z,98268.79
2018-01-15T16:53:01.085Z,98267.36
2018-01-15T16:55:28.974Z,98263.39
2018-01-15T16:57:56.432Z,98257.11
2018-01-15T17:00:25.320Z,98253.77
2018-01-15T17:02:54.007Z,98247.63
2018-01-15T17:05:21.476Z,98246.27
2018-01-15T17:07:48.937Z,98246.88
2018-01-15T17:10:17.242Z,98230.27
2018-01-15T17:12:44.758Z,98231.84
2018-01-15T17:15:12.497Z,98221.80
2018-01-15T17:17:41.564Z,98216.21
2018-01-15T17:20:09.065Z,98212.41
2018-01-15T17:22:36.520Z,98208.48
2018-01-15T17:25:04.502Z,98204.69
2018-01-15T17:27:31.961Z,98194.55
2018-01-15T17:29:59.466Z,98201.86
2018-01-15T17:32:27.138Z,98189.06
2018-01-15T17:34:54.617Z,98188.68
2018-01-15T17:37:22.081Z,98178.32
2018-01-15T17:39:50.215Z,98170.70
2018-01-15T17:42:17.960Z,98170.35
2018-01-15T17:44:45.508Z,98168.73
2018-01-15T17:47:14.307Z,98164.59
2018-01-15T17:49:41.773Z,98154.89
2018-01-15T17:52:09.253Z,98141.66
2018-01-15T17:54:37.045Z,98145.20
2018-01-15T17:57:04.778Z,98131.22
2018-01-15T17:59:32.232Z,98135.58
2018-01-15T18:02:00.966Z,98129.01
2018-01-15T18:04:28.426Z,98133.29
2018-01-15T18:06:55.896Z,98131.34
2018-01-15T18:09:23.761Z,98128.19
2018-01-15T18:11:51.222Z,98117.11
2018-01-15T18:14:18.675Z,98112.84
2018-01-15T18:16:46.642Z,98105.50
2018-01-15T18:19:14.113Z,98106.81
2018-01-15T18:21:41.577Z,98103.69
2018-01-15T18:24:09.345Z,98085.98
2018-01-15T18:26:36.812Z,98083.14
2018-01-15T18:29:04.267Z,98081.33
2018-01-15T18:31:32.030Z,98073.24
2018-01-15T18:33:59.501Z,98071.23
2018-01-15T18:36:26.975Z,98068.53
2018-01-15T18:38:54.712Z,98065.35
2018-01-15T18:41:22.164Z,98059.28
2018-01-15T18:43:49.628Z,98057.87
2018-01-15T18:46:17.216Z,98046.39
2018-01-15T18:48:44.686Z,98040.34
2018-01-15T18:51:12.159Z,98033.22
2018-01-15T18:53:40.156Z,98023.80
2018-01-15T18:56:07.621Z,98025.73
2018-01-15T18:58:35.081Z,98016.66
2018-01-15T19:01:02.780Z,98012.72
2018-01-15T19:03:30.620Z,98007.84
2018-01-15T19:05:58.076Z,97999.70
2018-01-15T19:08:25.806Z,98003.63
2018-01-15T19:10:53.263Z,97999.63
2018-01-15T19:13:20.729Z,98003.87
2018-01-15T19:15:48.450Z,97990.11
2018-01-15T19:18:15.919Z,97987.27
2018-01-15T19:20:43.383Z,97982.41
2018-01-15T19:23:11.738Z,97978.78
2018-01-15T19:25:39.208Z,97976.11
2018-01-15T19:28:06.669Z,97973.53
2018-01-15T19:30:34.556Z,97966.40
2018-01-15T19:33:02.016Z,97956.61
2018-01-15T19:35:35.452Z,97957.80
2018-01-15T19:38:03.384Z,97963.03
2018-01-15T19:40:30.870Z,97963.19
2018-01-15T19:43:00.756Z,97954.82
2018-01-15T19:45:34.278Z,97949.80
2018-01-15T19:48:07.315Z,97944.07
2018-01-15T19:50:40.846Z,97943.50
2018-01-15T19:56:15.061Z,97930.33
2018-01-15T19:58:48.984Z,97922.45
2018-01-15T20:01:22.286Z,97924.33
2018-01-15T20:03:55.857Z,97935.67
2018-01-15T20:06:29.187Z,97936.27
2018-01-15T20:09:02.161Z,97936.63
2018-01-15T20:11:29.948Z,97928.60
2018-01-15T20:13:57.412Z,97919.94
2018-01-15T20:16:24.872Z,97919.44
2018-01-15T20:18:52.638Z,97914.84
2018-01-15T20:21:20.096Z,97911.00
2018-01-15T20:23:47.565Z,97896.84
2018-01-15T20:26:15.387Z,97886.44
2018-01-15T20:28:42.856Z,97884.91
2018-01-15T20:31:10.336Z,97880.60
2018-01-15T20:33:38.064Z,97888.98
2018-01-15T20:36:05.785Z,97883.11
2018-01-15T20:38:33.291Z,97884.34
2018-01-15T20:41:01.051Z,97876.95
2018-01-15T20:43:28.534Z,97872.38
2018-01-15T20:45:56.152Z,97865.31
2018-01-15T20:48:24.027Z,97856.23
2018-01-15T20:50:51.505Z,97850.17
2018-01-15T20:53:18.987Z,97851.09
2018-01-15T20:55:46.732Z,97836.16
2018-01-15T20:58:14.208Z,97828.07
2018-01-15T21:00:41.669Z,97826.44
2018-01-15T21:03:09.681Z,97824.20
2018-01-15T21:05:39.077Z,97825.59
2018-01-15T21:08:06.537Z,97816.05
2018-01-15T21:10:34.525Z,97804.80
2018-01-15T21:13:01.994Z,97795.61
2018-01-15T21:15:29.457Z,97792.77
2018-01-15T21:17:57.227Z,97785.91
2018-01-15T21:20:24.681Z,97790.42
2018-01-15T21:22:52.157Z,97771.54
2018-01-15T21:25:19.909Z,97756.73
2018-01-15T21:27:48.851Z,97747.02
2018-01-15T21:30:16.333Z,97738.35
2018-01-15T21:32:44.115Z,97730.42
2018-01-15T21:35:11.580Z,97730.94
2018-01-15T21:37:39.060Z,97725.47
2018-01-15T21:40:07.412Z,97722.45
2018-01-15T21:42:34.919Z,97709.14
2018-01-15T21:45:02.349Z,97695.73
2018-01-15T21:47:30.126Z,97675.10
2018-01-15T21:49:57.604Z,97663.70
2018-01-15T21:52:25.085Z,97668.94
2018-01-15T21:54:53.112Z,97663.95
2018-01-15T21:57:20.584Z,97659.67
2018-01-15T21:59:48.045Z,97661.22
2018-01-15T22:02:15.784Z,97653.47
2018-01-15T22:04:43.263Z,97638.06
2018-01-15T22:07:11.084Z,97617.91
2018-01-15T22:09:39.093Z,97615.41
2018-01-15T22:12:06.560Z,97608.88
2018-01-15T22:14:34.032Z,97604.56
2018-01-15T22:17:01.786Z,97605.55
2018-01-15T22:19:29.248Z,97607.22
2018-01-15T22:21:56.721Z,97602.61
2018-01-15T22:24:24.456Z,97613.14
2018-01-15T22:29:37.202Z,97600.36
2018-01-15T22:32:04.677Z,97594.55
2018-01-15T22:34:32.141Z,97592.53
2018-01-15T22:36:59.932Z,97593.37
2018-01-15T22:39:27.408Z,97591.50
2018-01-15T22:41:54.862Z,97582.78
2018-01-15T22:44:22.571Z,97587.58
2018-01-15T22:46:50.034Z,97570.17
2018-01-15T22:49:17.498Z,97563.55
2018-01-15T22:51:45.574Z,97551.42
2018-01-15T22:54:13.081Z,97547.93
2018-01-15T22:56:40.544Z,97536.86
2018-01-15T22:59:08.265Z,97512.98
2018-01-15T23:01:35.721Z,97488.95
2018-01-15T23:04:03.191Z,97479.72
2018-01-15T23:06:30.916Z,97463.89
2018-01-15T23:08:59.103Z,97463.20
2018-01-15T23:11:26.560Z,97469.68
2018-01-15T23:13:54.289Z,97470.76
2018-01-15T23:16:21.747Z,97465.00
2018-01-15T23:18:49.209Z,97477.77
2018-01-15T23:21:16.924Z,97488.69
2018-01-15T23:23:44.380Z,97500.08
2018-01-15T23:26:11.836Z,97496.83
2018-01-15T23:28:40.251Z,97496.85
2018-01-15T23:31:07.709Z,97489.44
2018-01-15T23:33:35.160Z,97488.38
2018-01-15T23:36:02.920Z,97491.34
2018-01-15T23:38:30.372Z,97497.89
2018-01-15T23:40:57.829Z,97486.63
2018-01-15T23:43:25.544Z,97473.79
2018-01-15T23:45:53.019Z,97467.55
2018-01-15T23:48:20.477Z,97467.41
2018-01-15T23:50:48.200Z,97462.08
2018-01-15T23:53:15.649Z,97457.66
2018-01-15T23:55:43.112Z,97454.77
2018-01-15T23:58:10.973Z,97450.34
